EW2593 Weather Reports


Display with metric or nautical units.
time (UTC)temp
F
wind
direction
speed
MPH
gust
MPH
rain 1hr
in
rain 24hr
in
rain mn
in
humidity
%
barometer
mb
20190720100524 60 189 0.0 0.0 0.00 0.00 0.00 30 1007.5
20190720100044 61 189 0.0 0.0 0.00 0.00 0.00 28 1007.5
20190720095517 62 189 0.0 0.0 0.00 0.00 0.00 29 1007.4
20190720095016 64 189 0.0 0.0 0.00 0.00 0.00 25 1007.4
20190720094529 63 189 0.0 0.0 0.00 0.00 0.00 28 1007.4
20190720094015 64 189 0.0 0.0 0.00 0.00 0.00 25 1007.4
20190720093515 64 189 0.0 0.0 0.00 0.00 0.00 24 1007.5
20190720093023 63 189 0.0 0.0 0.00 0.00 0.00 25 1007.4
20190720092518 61 189 0.0 0.0 0.00 0.00 0.00 29 1007.3
20190720092025 62 189 0.0 0.0 0.00 0.00 0.00 27 1007.3
20190720091537 61 189 0.0 0.0 0.00 0.00 0.00 31 1007.3
20190720091023 62 188 0.0 0.0 0.00 0.00 0.00 29 1007.3
20190720090519 64 188 0.0 0.0 0.00 0.00 0.00 27 1007.3
20190720085521 66 188 0.0 0.0 0.00 0.00 0.00 24 1007.4
20190720085016 68 188 0.0 0.0 0.00 0.00 0.00 21 1007.6
20190720084529 69 188 0.0 0.0 0.00 0.00 0.00 20 1007.5
20190720084029 69 188 0.0 0.0 0.00 0.00 0.00 20 1007.5
20190720083523 69 188 0.0 0.0 0.00 0.00 0.00 19 1007.5
20190720083040 69 188 0.0 0.0 0.00 0.00 0.00 19 1007.5
20190720082526 68 188 0.0 0.0 0.00 0.00 0.00 21 1007.4
20190720082031 69 188 0.0 0.0 0.00 0.00 0.00 18 1007.6
20190720081625 68 188 0.0 0.0 0.00 0.00 0.00 19 1007.6
20190720081023 68 188 0.0 0.0 0.00 0.00 0.00 19 1007.6
20190720080533 67 188 0.0 0.0 0.00 0.00 0.00 20 1007.7
20190720080056 67 188 0.0 0.0 0.00 0.00 0.00 21 1007.6
20190720075512 68 188 0.0 0.0 0.00 0.00 0.00 19 1007.5
20190720074524 71 187 0.0 0.0 0.00 0.00 0.00 17 1007.6
20190720074014 71 183 0.0 7.0 0.00 0.00 0.00 17 1007.6
20190720073517 71 183 3.0 7.0 0.00 0.00 0.00 17 1007.6
20190720073025 70 183 0.0 1.0 0.00 0.00 0.00 17 1007.6
20190720072019 70 183 0.0 8.0 0.00 0.00 0.00 17 1007.7
20190720071548 69 200 4.0 7.0 0.00 0.00 0.00 17 1007.8
20190720071016 69 244 0.0 1.0 0.00 0.00 0.00 17 1007.8
20190720070523 70 245 0.0 1.0 0.00 0.00 0.00 17 1007.8
20190720065518 71 246 0.0 0.0 0.00 0.00 0.00 14 1007.7
20190720065017 71 246 0.0 0.0 0.00 0.00 0.00 15 1007.6
20190720064559 71 246 0.0 0.0 0.00 0.00 0.00 14 1007.6
20190720064017 71 228 0.0 5.0 0.00 0.00 0.00 15 1007.7
20190720063518 71 227 0.0 6.0 0.00 0.00 0.00 15 1007.6
20190720063051 71 225 4.0 6.0 0.00 0.00 0.00 15 1007.5
20190720062525 71 227 0.0 0.0 0.00 0.00 0.00 14 1007.6
20190720062025 71 235 0.0 0.0 0.00 0.00 0.00 14 1007.7
20190720061537 71 227 0.0 0.0 0.00 0.00 0.00 14 1007.7
20190720061030 72 221 0.0 0.0 0.00 0.00 0.00 14 1007.7
20190720060525 71 207 0.0 6.0 0.00 0.00 0.00 13 1007.6
20190720060036 72 202 0.0 6.0 0.00 0.00 0.00 13 1007.6
20190720055514 72 188 0.0 1.0 0.00 0.00 0.00 17 1007.6
20190720055017 72 189 0.0 5.0 0.00 0.00 0.00 14 1007.6
20190720054518 72 190 1.0 5.0 0.00 0.00 0.00 13 1007.5
20190720054011 72 196 2.0 5.0 0.00 0.00 0.00 13 1007.6
20190720053512 74 204 0.0 1.0 0.00 0.00 0.00 12 1007.5
20190720053056 75 172 0.0 0.0 0.00 0.00 0.00 11 1007.4
20190720052517 74 187 0.0 0.0 0.00 0.00 0.00 11 1007.4
20190720052019 75 185 0.0 2.0 0.00 0.00 0.00 11 1007.5
20190720051523 74 163 0.0 4.0 0.00 0.00 0.00 12 1007.3
20190720051013 74 184 0.0 4.0 0.00 0.00 0.00 12 1007.3
20190720050513 75 186 0.0 3.0 0.00 0.00 0.00 13 1007.4
20190720050107 76 186 0.0 5.0 0.00 0.00 0.00 11 1007.3
20190720045514 76 236 2.0 5.0 0.00 0.00 0.00 10 1007.2
20190720045013 76 290 1.0 4.0 0.00 0.00 0.00 11 1007.3
20190720044527 77 190 1.0 7.0 0.00 0.00 0.00 10 1007.2
20190720044010 77 190 0.0 8.0 0.00 0.00 0.00 11 1007.2
20190720043517 76 182 4.0 9.0 0.00 0.00 0.00 13 1007.1
20190720043017 76 175 5.0 8.0 0.00 0.00 0.00 14 1007.0
20190720042516 76 177 2.0 6.0 0.00 0.00 0.00 14 1007.1
20190720042014 76 173 0.0 5.0 0.00 0.00 0.00 14 1007.0
20190720041016 76 167 0.0 2.0 0.00 0.00 0.00 15 1006.8
20190720040516 76 177 0.0 2.0 0.00 0.00 0.00 15 1006.7
20190720040038 76 223 0.0 4.0 0.00 0.00 0.00 16 1006.5
20190720035522 77 242 0.0 6.0 0.00 0.00 0.00 16 1006.6
20190720035022 77 223 0.0 7.0 0.00 0.00 0.00 17 1006.4
20190720034537 77 209 1.0 7.0 0.00 0.00 0.00 17 1006.4
20190720034020 77 208 3.0 10.0 0.00 0.00 0.00 18 1006.4
20190720033533 77 232 3.0 10.0 0.00 0.00 0.00 18 1006.5
20190720033042 78 202 3.0 8.0 0.00 0.00 0.00 18 1006.2
20190720032530 78 207 3.0 7.0 0.00 0.00 0.00 17 1006.3
20190720032021 78 203 1.0 9.0 0.00 0.00 0.00 17 1006.3
20190720031607 78 186 0.0 9.0 0.00 0.00 0.00 17 1006.2
20190720031031 78 225 3.0 9.0 0.00 0.00 0.00 17 1006.1
20190720030533 78 208 3.0 12.0 0.00 0.00 0.00 17 1006.0
20190720030048 79 230 4.0 12.0 0.00 0.00 0.00 17 1005.9
20190720025523 79 232 6.0 11.0 0.00 0.00 0.00 17 1005.9
20190720025022 79 222 5.0 12.0 0.00 0.00 0.00 18 1005.8
20190720024559 79 217 6.0 11.0 0.00 0.00 0.00 17 1005.9
20190720024025 80 221 6.0 15.0 0.00 0.00 0.00 18 1005.9
20190720023532 80 225 3.0 15.0 0.00 0.00 0.00 18 1005.8
20190720023053 80 237 7.0 16.0 0.00 0.00 0.00 18 1005.8
20190720022526 81 223 5.0 16.0 0.00 0.00 0.00 18 1005.8
20190720022024 81 244 6.0 16.0 0.00 0.00 0.00 18 1005.9
20190720021645 82 221 9.0 15.0 0.00 0.00 0.00 18 1005.8
20190720021031 82 223 8.0 13.0 0.00 0.00 0.00 18 1005.8
20190720020524 82 249 9.0 20.0 0.00 0.00 0.00 18 1005.7
20190720020049 82 257 9.0 20.0 0.00 0.00 0.00 18 1005.8
20190720015534 83 242 8.0 12.0 0.00 0.00 0.00 18 1005.8
20190720015023 83 228 8.0 12.0 0.00 0.00 0.00 18 1005.9
20190720014555 83 289 7.0 13.0 0.00 0.00 0.00 18 1005.9
20190720014025 83 263 4.0 15.0 0.00 0.00 0.00 18 1005.8
20190720013521 82 248 5.0 16.0 0.00 0.00 0.00 18 1005.8
20190720013035 82 163 7.0 16.0 0.00 0.00 0.00 18 1005.6
20190720012521 82 210 4.0 18.0 0.00 0.00 0.00 18 1005.7
20190720012029 82 243 9.0 18.0 0.00 0.00 0.00 18 1005.7
20190720011522 82 217 8.0 13.0 0.00 0.00 0.00 18 1005.7
20190720011028 82 244 9.0 14.0 0.00 0.00 0.00 19 1005.7
20190720010521 82 188 5.0 15.0 0.00 0.00 0.00 19 1005.5
20190720010048 82 238 8.0 15.0 0.00 0.00 0.00 19 1005.6
20190720005519 82 243 7.0 14.0 0.00 0.00 0.00 19 1005.8
20190720005025 82 288 9.0 20.0 0.00 0.00 0.00 18 1005.9
20190720004532 83 248 10.0 20.0 0.00 0.00 0.00 18 1006.0
20190720004018 83 215 3.0 18.0 0.00 0.00 0.00 19 1005.9
20190720003517 83 252 10.0 18.0 0.00 0.00 0.00 18 1005.8
20190720003033 83 213 6.0 13.0 0.00 0.00 0.00 18 1005.6
20190720002518 83 224 5.0 17.0 0.00 0.00 0.00 18 1005.7
20190720002019 84 202 12.0 17.0 0.00 0.00 0.00 17 1005.7
20190720001525 86 186 9.0 17.0 0.00 0.00 0.00 17 1005.8
20190720001016 86 187 8.0 16.0 0.00 0.00 0.00 19 1005.8
20190720000525 85 279 5.0 16.0 0.00 0.00 0.00 20 1005.9
20190720000019 85 294 4.0 17.0 0.00 0.00 0.00 19 1005.9
20190719235526 86 217 9.0 17.0 0.00 0.00 0.00 19 1005.8
20190719235017 86 283 6.0 17.0 0.00 0.00 0.00 19 1005.8
20190719234558 86 198 9.0 17.0 0.00 0.00 0.00 18 1005.8
20190719234028 87 153 7.0 17.0 0.00 0.00 0.00 19 1005.8
20190719233519 87 288 9.0 19.0 0.00 0.00 0.00 19 1006.0
20190719233110 88 312 9.0 19.0 0.00 0.00 0.00 18 1006.0
20190719232523 87 225 8.0 14.0 0.00 0.00 0.00 18 1005.8
20190719232019 88 232 7.0 15.0 0.00 0.00 0.00 18 1005.9
20190719231545 88 281 7.0 16.0 0.00 0.00 0.00 19 1005.8
20190719231017 89 232 11.0 16.0 0.00 0.00 0.00 19 1006.0
20190719230516 88 266 7.0 17.0 0.00 0.00 0.00 20 1006.1
20190719230038 88 231 9.0 22.0 0.00 0.00 0.00 20 1006.2
20190719225529 88 214 7.0 22.0 0.00 0.00 0.00 21 1006.2
20190719225030 88 189 5.0 20.0 0.00 0.00 0.00 21 1006.1
20190719224605 88 257 4.0 17.0 0.00 0.00 0.00 20 1006.2
20190719224022 88 246 4.0 17.0 0.00 0.00 0.00 22 1006.3
20190719223528 86 256 10.0 16.0 0.00 0.00 0.00 22 1006.4
20190719223034 85 183 9.0 20.0 0.00 0.00 0.00 22 1006.4
20190719222527 83 175 11.0 20.0 0.00 0.00 0.00 22 1006.5
20190719222021 83 207 7.0 17.0 0.00 0.00 0.00 24 1006.8
20190719221555 82 183 6.0 16.0 0.00 0.00 0.00 24 1006.9
20190719221022 82 200 8.0 16.0 0.00 0.00 0.00 24 1007.0
20190719220519 82 166 9.0 20.0 0.00 0.00 0.00 24 1007.0
20190719220058 82 178 8.0 20.0 0.00 0.00 0.00 24 1007.0
20190719215533 82 193 4.0 14.0 0.00 0.00 0.00 24 1006.9
20190719215035 82 221 5.0 13.0 0.00 0.00 0.00 25 1006.9
20190719214545 82 232 4.0 12.0 0.00 0.00 0.00 25 1007.0
20190719214024 82 219 6.0 20.0 0.00 0.00 0.00 24 1007.1
20190719213525 81 197 13.0 20.0 0.00 0.00 0.00 24 1007.1
20190719213030 82 209 9.0 16.0 0.00 0.00 0.00 24 1007.0
20190719212526 82 207 8.0 14.0 0.00 0.00 0.00 24 1007.1
20190719212031 82 229 0.0 15.0 0.00 0.00 0.00 25 1006.9
20190719211543 82 228 8.0 16.0 0.00 0.00 0.00 24 1007.0
20190719211032 82 259 9.0 16.0 0.00 0.00 0.00 24 1007.2
20190719210532 82 267 4.0 14.0 0.00 0.00 0.00 25 1007.2
20190719210109 82 227 8.0 17.0 0.00 0.00 0.00 24 1007.3
20190719205534 82 244 10.0 17.0 0.00 0.00 0.00 24 1007.3
20190719205032 83 240 8.0 15.0 0.00 0.00 0.00 24 1007.3
20190719204606 83 284 5.0 14.0 0.00 0.00 0.00 25 1007.3
20190719204027 83 314 5.0 16.0 0.00 0.00 0.00 23 1007.2
20190719203531 83 240 8.0 16.0 0.00 0.00 0.00 24 1007.4
20190719203043 84 247 10.0 16.0 0.00 0.00 0.00 22 1007.2
20190719202527 84 222 0.0 17.0 0.00 0.00 0.00 22 1007.2
20190719202031 83 172 3.0 16.0 0.00 0.00 0.00 23 1007.4
20190719201546 82 177 8.0 17.0 0.00 0.00 0.00 23 1007.4
20190719201029 83 192 7.0 19.0 0.00 0.00 0.00 22 1007.4
20190719200538 83 180 11.0 19.0 0.00 0.00 0.00 22 1007.5
20190719200011 83 192 10.0 15.0 0.00 0.00 0.00 23 1007.6
20190719195507 83 209 9.0 23.0 0.00 0.00 0.00 23 1007.6
20190719195015 83 215 13.0 23.0 0.00 0.00 0.00 23 1007.6
20190719194536 83 169 10.0 17.0 0.00 0.00 0.00 23 1007.6
20190719194014 84 296 0.0 15.0 0.00 0.00 0.00 24 1007.6
20190719193516 84 248 7.0 15.0 0.00 0.00 0.00 24 1007.7
20190719193017 84 319 9.0 15.0 0.00 0.00 0.00 23 1007.7
20190719192521 83 250 8.0 16.0 0.00 0.00 0.00 23 1007.8
20190719192017 83 276 8.0 16.0 0.00 0.00 0.00 23 1007.8
20190719191537 84 222 7.0 23.0 0.00 0.00 0.00 24 1007.9
20190719191020 84 231 4.0 23.0 0.00 0.00 0.00 24 1007.8
20190719190519 86 277 0.0 13.0 0.00 0.00 0.00 23 1007.7
20190719190041 85 303 3.0 10.0 0.00 0.00 0.00 25 1007.9
20190719185519 83 251 4.0 18.0 0.00 0.00 0.00 25 1008.0
20190719185017 83 240 9.0 18.0 0.00 0.00 0.00 24 1008.0
20190719184024 86 277 5.0 14.0 0.00 0.00 0.00 23 1008.0
20190719183037 87 239 11.0 21.0 0.00 0.00 0.00 23 1008.0
20190719182521 87 238 10.0 21.0 0.00 0.00 0.00 24 1008.1
20190719181550 86 331 5.0 17.0 0.00 0.00 0.00 23 1007.9
20190719181020 86 221 10.0 15.0 0.00 0.00 0.00 22 1008.0
20190719180518 85 267 2.0 12.0 0.00 0.00 0.00 27 1007.9
20190719180025 84 226 6.0 19.0 0.00 0.00 0.00 28 1007.9
20190719175522 83 219 8.0 19.0 0.00 0.00 0.00 28 1007.9
20190719175020 82 271 5.0 15.0 0.00 0.00 0.00 28 1007.8
20190719174028 83 201 7.0 16.0 0.00 0.00 0.00 27 1007.9
20190719173523 83 206 9.0 17.0 0.00 0.00 0.00 27 1007.8
20190719173057 82 216 7.0 17.0 0.00 0.00 0.00 29 1007.7
20190719172020 83 185 6.0 16.0 0.00 0.00 0.00 29 1007.6
20190719171541 83 219 8.0 16.0 0.00 0.00 0.00 27 1007.5
20190719171022 84 170 6.0 15.0 0.00 0.00 0.00 28 1007.5
20190719170534 83 312 5.0 15.0 0.00 0.00 0.00 28 1007.6
20190719170050 83 171 1.0 12.0 0.00 0.00 0.00 26 1007.6
20190719165531 82 248 7.0 15.0 0.00 0.00 0.00 27 1007.7
20190719165034 82 284 9.0 15.0 0.00 0.00 0.00 27 1007.9
20190719164542 82 256 7.0 16.0 0.00 0.00 0.00 28 1007.8
20190719164028 83 226 5.0 16.0 0.00 0.00 0.00 26 1007.8
20190719163530 82 212 5.0 12.0 0.00 0.00 0.00 27 1007.7
20190719163047 81 236 5.0 12.0 0.00 0.00 0.00 29 1007.7
20190719162533 81 279 1.0 12.0 0.00 0.00 0.00 28 1007.8
20190719162027 81 273 6.0 13.0 0.00 0.00 0.00 27 1007.9
20190719161614 81 298 7.0 13.0 0.00 0.00 0.00 27 1007.9
20190719161027 80 256 3.0 13.0 0.00 0.00 0.00 27 1007.9
20190719160529 80 238 5.0 13.0 0.00 0.00 0.00 27 1007.9
20190719160033 79 315 0.0 9.0 0.00 0.00 0.00 28 1007.8
20190719155533 80 257 2.0 12.0 0.00 0.00 0.00 28 1007.8
20190719155034 79 214 3.0 12.0 0.00 0.00 0.00 28 1007.9
20190719154544 79 275 0.0 0.0 0.00 0.00 0.00 27 1007.9
20190719154024 78 306 0.0 0.0 0.00 0.00 0.00 29 1007.8
20190719153533 78 189 0.0 0.0 0.00 0.00 0.00 29 1007.9
20190719153043 77 188 0.0 0.0 0.00 0.00 0.00 30 1008.0
20190719152524 77 187 0.0 0.0 0.00 0.00 0.00 29 1007.9
20190719152025 76 187 0.0 0.0 0.00 0.00 0.00 30 1007.9
20190719151606 76 187 0.0 0.0 0.00 0.00 0.00 30 1007.9
20190719151032 76 187 0.0 0.0 0.00 0.00 0.00 30 1007.9
20190719150533 75 187 0.0 0.0 0.00 0.00 0.00 32 1007.9
20190719150044 75 187 0.0 1.0 0.00 0.00 0.00 30 1007.9
20190719145512 74 187 0.0 1.0 0.00 0.00 0.00 32 1007.9
20190719145010 73 187 0.0 0.0 0.00 0.00 0.00 32 1007.7
20190719144540 73 187 0.0 0.0 0.00 0.00 0.00 31 1007.8
20190719144014 73 187 0.0 0.0 0.00 0.00 0.00 31 1007.8
20190719143508 72 187 0.0 0.0 0.00 0.00 0.00 31 1007.8
20190719143015 72 187 0.0 0.0 0.00 0.00 0.00 32 1007.7
20190719142512 72 187 0.0 0.0 0.00 0.00 0.00 32 1007.7
20190719142016 71 187 0.0 0.0 0.00 0.00 0.00 31 1007.8
20190719141521 70 187 0.0 0.0 0.00 0.00 0.00 33 1007.8
20190719141015 69 187 0.0 0.0 0.00 0.00 0.00 36 1007.9
20190719140524 68 187 0.0 0.0 0.00 0.00 0.00 38 1007.8
20190719140027 67 187 0.0 0.0 0.00 0.00 0.00 37 1007.8
20190719135521 66 187 0.0 0.0 0.00 0.00 0.00 38 1007.8
20190719135020 67 187 0.0 0.0 0.00 0.00 0.00 37 1007.7
20190719134527 67 187 0.0 0.0 0.00 0.00 0.00 35 1007.7
20190719134024 66 187 0.0 0.0 0.00 0.00 0.00 35 1007.8
20190719133524 67 187 0.0 0.0 0.00 0.00 0.00 35 1007.8
20190719133051 67 187 0.0 0.0 0.00 0.00 0.00 35 1007.8
20190719132532 67 187 0.0 0.0 0.00 0.00 0.00 35 1007.8
20190719132024 67 187 0.0 0.0 0.00 0.00 0.00 37 1007.7
20190719131524 67 187 0.0 0.0 0.00 0.00 0.00 34 1007.6
20190719131032 66 187 0.0 0.0 0.00 0.00 0.00 35 1007.5
20190719130532 67 187 0.0 0.0 0.00 0.00 0.00 35 1007.5
20190719130037 67 187 0.0 0.0 0.00 0.00 0.00 35 1007.5
20190719125513 67 187 0.0 0.0 0.00 0.00 0.00 34 1007.4
20190719125011 67 187 0.0 0.0 0.00 0.00 0.00 34 1007.5
20190719124518 67 187 0.0 0.0 0.00 0.00 0.00 37 1007.3
20190719123511 68 187 0.0 0.0 0.00 0.00 0.00 32 1007.4
20190719123018 68 187 0.0 0.0 0.00 0.00 0.00 32 1007.3
20190719122512 68 187 0.0 0.0 0.00 0.00 0.00 32 1007.2
20190719122011 68 187 0.0 0.0 0.00 0.00 0.00 32 1007.3
20190719121517 69 187 0.0 0.0 0.00 0.00 0.00 33 1007.2
20190719121014 69 187 0.0 0.0 0.00 0.00 0.00 31 1007.2
20190719120518 70 187 0.0 0.0 0.00 0.00 0.00 30 1007.1
20190719120038 69 187 0.0 0.0 0.00 0.00 0.00 31 1007.1
20190719115523 69 187 0.0 0.0 0.00 0.00 0.00 33 1007.0
20190719114530 69 186 0.0 0.0 0.00 0.00 0.00 31 1007.0
20190719114019 70 186 0.0 7.0 0.00 0.00 0.00 31 1007.0
20190719113505 70 186 0.0 7.0 0.00 0.00 0.00 30 1007.0
20190719113056 70 188 0.0 0.0 0.00 0.00 0.00 30 1007.1
20190719112512 70 192 0.0 0.0 0.00 0.00 0.00 29 1007.0
20190719112015 70 198 0.0 0.0 0.00 0.00 0.00 29 1006.9
20190719111514 70 196 0.0 0.0 0.00 0.00 0.00 29 1006.9
20190719111014 70 196 0.0 0.0 0.00 0.00 0.00 29 1006.8
20190719110514 70 195 0.0 0.0 0.00 0.00 0.00 29 1006.8
20190719110052 70 195 0.0 0.0 0.00 0.00 0.00 29 1006.8
20190719105528 70 194 0.0 0.0 0.00 0.00 0.00 29 1006.8
20190719105025 70 194 0.0 0.0 0.00 0.00 0.00 28 1006.9
20190719104543 70 194 0.0 0.0 0.00 0.00 0.00 28 1006.9
20190719104019 70 195 0.0 0.0 0.00 0.00 0.00 28 1006.7
20190719103518 70 191 0.0 7.0 0.00 0.00 0.00 28 1006.8
20190719103126 69 192 1.0 9.0 0.00 0.00 0.00 29 1006.8
20190719102518 70 185 1.0 9.0 0.00 0.00 0.00 28 1006.8
20190719102021 70 181 0.0 8.0 0.00 0.00 0.00 27 1006.8
20190719101623 71 178 2.0 8.0 0.00 0.00 0.00 27 1006.9
20190719101024 70 180 0.0 2.0 0.00 0.00 0.00 27 1006.8